Time,TemperatureF,DewpointF,PressureIn,WindDirection,WindDirectionDegrees,WindSpeedMPH,WindSpeedGustMPH,Humidity,HourlyPrecipIn,Conditions,Clouds,dailyrainin,SoftwareType,DateUTC
2013-02-10 00:06:00,31.2,24.0,30.21,ENE,77,1.0,6.0,75,0.00,,,0.00,weatherlink.com 1.10,2013-02-10 05:06:00,
2013-02-10 00:21:00,31.3,24.0,30.21,SSE,151,1.0,3.0,75,0.00,,,0.00,weatherlink.com 1.10,2013-02-10 05:21:00,
2013-02-10 00:36:00,31.4,24.0,30.20,ESE,117,0.0,6.0,74,0.00,,,0.00,weatherlink.com 1.10,2013-02-10 05:36:00,
2013-02-10 00:51:00,31.7,24.0,30.19,SE,127,0.0,6.0,74,0.00,,,0.00,weatherlink.com 1.10,2013-02-10 05:51:00,
2013-02-10 01:07:00,32.2,24.0,30.19,ESE,106,0.0,5.0,73,0.00,,,0.00,weatherlink.com 1.10,2013-02-10 06:07:00,
2013-02-10 01:22:00,32.5,25.0,30.18,NE,55,0.0,4.0,73,0.00,,,0.00,weatherlink.com 1.10,2013-02-10 06:22:00,
2013-02-10 01:37:00,32.9,25.0,30.17,NNE,27,1.0,5.0,72,0.00,,,0.00,weatherlink.com 1.10,2013-02-10 06:37:00,
2013-02-10 01:52:00,33.2,24.0,30.17,NE,51,1.0,7.0,70,0.00,,,0.00,weatherlink.com 1.10,2013-02-10 06:52:00,
2013-02-10 02:07:00,33.5,24.0,30.17,ESE,105,2.0,6.0,69,0.00,,,0.00,weatherlink.com 1.10,2013-02-10 07:07:00,
2013-02-10 02:22:00,33.5,24.0,30.16,East,80,3.0,5.0,69,0.00,,,0.00,weatherlink.com 1.10,2013-02-10 07:22:00,
2013-02-10 02:37:00,33.9,24.0,30.16,ESE,118,2.0,9.0,68,0.00,,,0.00,weatherlink.com 1.10,2013-02-10 07:37:00,
2013-02-10 02:52:00,34.2,24.0,30.16,ESE,113,0.0,6.0,67,0.00,,,0.00,weatherlink.com 1.10,2013-02-10 07:52:00,
2013-02-10 03:07:00,34.5,25.0,30.17,ESE,104,3.0,6.0,67,0.00,,,0.00,weatherlink.com 1.10,2013-02-10 08:07:00,
2013-02-10 03:22:00,34.4,24.0,30.16,East,91,3.0,7.0,67,0.00,,,0.00,weatherlink.com 1.10,2013-02-10 08:22:00,
2013-02-10 03:37:00,34.5,25.0,30.17,SE,138,1.0,5.0,67,0.00,,,0.00,weatherlink.com 1.10,2013-02-10 08:37:00,
2013-02-10 03:52:00,34.4,24.0,30.17,ESE,104,2.0,7.0,67,0.00,,,0.00,weatherlink.com 1.10,2013-02-10 08:52:00,
2013-02-10 04:07:00,34.6,25.0,30.16,SSE,153,1.0,5.0,67,0.00,,,0.00,weatherlink.com 1.10,2013-02-10 09:07:00,
2013-02-10 04:22:00,34.7,25.0,30.17,ESE,105,1.0,6.0,67,0.00,,,0.00,weatherlink.com 1.10,2013-02-10 09:22:00,
2013-02-10 04:37:00,34.9,25.0,30.16,SE,136,2.0,3.0,67,0.00,,,0.00,weatherlink.com 1.10,2013-02-10 09:37:00,
2013-02-10 04:52:00,35.2,25.0,30.16,East,89,1.0,5.0,67,0.00,,,0.00,weatherlink.com 1.10,2013-02-10 09:52:00,
2013-02-10 05:07:00,35.3,25.0,30.11,WSW,245,1.0,5.0,67,0.00,,,0.00,weatherlink.com 1.10,2013-02-10 10:07:00,
2013-02-10 05:22:00,35.3,26.0,30.11,East,81,2.0,5.0,68,0.00,,,0.00,weatherlink.com 1.10,2013-02-10 10:22:00,
2013-02-10 05:37:00,35.2,27.0,30.13,SSE,152,0.0,3.0,71,0.00,,,0.00,weatherlink.com 1.10,2013-02-10 10:37:00,
2013-02-10 05:52:00,35.0,27.0,30.12,East,88,0.0,1.0,72,0.00,,,0.00,weatherlink.com 1.10,2013-02-10 10:52:00,
2013-02-10 06:07:00,34.9,26.0,30.11,ESE,110,1.0,5.0,70,0.00,,,0.00,weatherlink.com 1.10,2013-02-10 11:07:00,
2013-02-10 06:22:00,34.9,26.0,30.12,SE,124,2.0,5.0,70,0.00,,,0.00,weatherlink.com 1.10,2013-02-10 11:22:00,
2013-02-10 06:37:00,35.0,26.0,30.11,ESE,111,1.0,6.0,69,0.00,,,0.00,weatherlink.com 1.10,2013-02-10 11:37:00,
2013-02-10 06:53:00,35.1,25.0,30.12,ESE,115,2.0,5.0,68,0.00,,,0.00,weatherlink.com 1.10,2013-02-10 11:53:00,
2013-02-10 07:08:00,35.3,26.0,30.11,ESE,103,4.0,6.0,68,0.00,,,0.00,weatherlink.com 1.10,2013-02-10 12:08:00,
2013-02-10 07:23:00,35.2,26.0,30.11,ESE,110,1.0,5.0,68,0.00,,,0.00,weatherlink.com 1.10,2013-02-10 12:23:00,
2013-02-10 07:38:00,35.3,26.0,30.10,East,79,3.0,6.0,68,0.00,,,0.00,weatherlink.com 1.10,2013-02-10 12:38:00,
2013-02-10 07:53:00,35.3,26.0,30.09,SE,132,1.0,6.0,68,0.00,,,0.00,weatherlink.com 1.10,2013-02-10 12:53:00,
2013-02-10 08:08:00,35.7,26.0,30.08,SSE,149,5.0,7.0,68,0.00,,,0.00,weatherlink.com 1.10,2013-02-10 13:08:00,
2013-02-10 08:23:00,35.9,27.0,30.07,ENE,69,2.0,9.0,69,0.00,,,0.00,weatherlink.com 1.10,2013-02-10 13:23:00,
2013-02-10 08:38:00,36.5,27.0,30.07,ESE,106,5.0,8.0,68,0.00,,,0.00,weatherlink.com 1.10,2013-02-10 13:38:00,
2013-02-10 08:53:00,37.1,27.0,30.07,SSE,152,1.0,5.0,68,0.00,,,0.00,weatherlink.com 1.10,2013-02-10 13:53:00,
2013-02-10 09:08:00,38.2,28.0,30.07,NNW,347,3.0,6.0,67,0.00,,,0.00,weatherlink.com 1.10,2013-02-10 14:08:00,
2013-02-10 09:23:00,38.9,29.0,30.07,SE,139,1.0,9.0,67,0.00,,,0.00,weatherlink.com 1.10,2013-02-10 14:23:00,
2013-02-10 09:38:00,39.3,30.0,30.08,East,101,2.0,5.0,70,0.00,,,0.00,weatherlink.com 1.10,2013-02-10 14:38:00,
2013-02-10 09:53:00,39.6,31.0,30.08,SE,139,2.0,8.0,71,0.00,,,0.00,weatherlink.com 1.10,2013-02-10 14:53:00,
2013-02-10 10:08:00,39.4,33.0,30.07,ESE,111,2.0,5.0,77,0.00,,,0.00,weatherlink.com 1.10,2013-02-10 15:08:00,
2013-02-10 10:23:00,40.1,34.0,30.06,East,91,2.0,5.0,79,0.00,,,0.00,weatherlink.com 1.10,2013-02-10 15:23:00,
2013-02-10 10:38:00,40.6,35.0,30.05,SE,127,1.0,7.0,79,0.00,,,0.00,weatherlink.com 1.10,2013-02-10 15:38:00,
2013-02-10 10:53:00,40.8,35.0,30.04,WNW,282,0.0,4.0,79,0.00,,,0.00,weatherlink.com 1.10,2013-02-10 15:53:00,
2013-02-10 11:09:00,41.9,36.0,30.02,East,96,2.0,6.0,78,0.00,,,0.00,weatherlink.com 1.10,2013-02-10 16:09:00,
2013-02-10 11:24:00,43.0,36.0,30.01,ESE,111,2.0,7.0,76,0.00,,,0.00,weatherlink.com 1.10,2013-02-10 16:24:00,
2013-02-10 11:54:00,45.6,37.0,29.98,East,87,1.0,9.0,72,0.00,,,0.00,weatherlink.com 1.10,2013-02-10 16:54:00,
2013-02-10 12:09:00,47.6,37.0,29.97,SE,131,3.0,7.0,68,0.00,,,0.00,weatherlink.com 1.10,2013-02-10 17:09:00,
2013-02-10 12:24:00,49.2,37.0,29.95,South,185,2.0,9.0,64,0.00,,,0.00,weatherlink.com 1.10,2013-02-10 17:24:00,
2013-02-10 12:39:00,49.6,37.0,29.94,NE,54,2.0,11.0,63,0.00,,,0.00,weatherlink.com 1.10,2013-02-10 17:39:00,
2013-02-10 12:54:00,50.0,37.0,29.92,SSE,167,2.0,10.0,62,0.00,,,0.00,weatherlink.com 1.10,2013-02-10 17:54:00,
2013-02-10 13:09:00,49.8,37.0,29.92,ENE,72,4.0,12.0,61,0.00,,,0.00,weatherlink.com 1.10,2013-02-10 18:09:00,
2013-02-10 13:24:00,49.3,37.0,29.90,East,97,5.0,12.0,63,0.00,,,0.00,weatherlink.com 1.10,2013-02-10 18:24:00,
2013-02-10 13:39:00,49.4,37.0,29.89,ESE,108,2.0,8.0,63,0.00,,,0.00,weatherlink.com 1.10,2013-02-10 18:39:00,
2013-02-10 13:54:00,49.2,37.0,29.89,SW,217,2.0,8.0,64,0.00,,,0.00,weatherlink.com 1.10,2013-02-10 18:54:00,
2013-02-10 14:09:00,49.1,37.0,29.90,SSE,150,1.0,6.0,64,0.00,,,0.00,weatherlink.com 1.10,2013-02-10 19:09:00,
2013-02-10 14:24:00,49.4,38.0,29.89,ENE,66,3.0,6.0,65,0.00,,,0.00,weatherlink.com 1.10,2013-02-10 19:24:00,
2013-02-10 14:39:00,49.2,38.0,29.88,East,93,4.0,7.0,65,0.00,,,0.00,weatherlink.com 1.10,2013-02-10 19:39:00,
2013-02-10 14:54:00,47.8,40.0,29.87,East,87,2.0,9.0,73,0.00,,,0.00,weatherlink.com 1.10,2013-02-10 19:54:00,
2013-02-10 15:09:00,47.4,39.0,29.86,ESE,107,0.0,7.0,73,0.00,,,0.00,weatherlink.com 1.10,2013-02-10 20:09:00,
2013-02-10 15:24:00,47.8,39.0,29.85,SE,139,1.0,5.0,72,0.00,,,0.00,weatherlink.com 1.10,2013-02-10 20:24:00,
2013-02-10 15:39:00,48.2,39.0,29.84,East,79,3.0,7.0,70,0.00,,,0.00,weatherlink.com 1.10,2013-02-10 20:39:00,
2013-02-10 15:54:00,48.4,39.0,29.82,East,99,4.0,10.0,70,0.00,,,0.00,weatherlink.com 1.10,2013-02-10 20:54:00,
2013-02-10 16:09:00,48.2,40.0,29.77,NE,47,7.0,14.0,72,0.00,,,0.00,weatherlink.com 1.10,2013-02-10 21:09:00,
2013-02-10 16:24:00,47.7,40.0,29.79,ESE,110,10.0,13.0,76,0.00,,,0.00,weatherlink.com 1.10,2013-02-10 21:24:00,
2013-02-10 16:39:00,48.0,40.0,29.79,ESE,108,7.0,15.0,75,0.00,,,0.00,weatherlink.com 1.10,2013-02-10 21:39:00,
2013-02-10 16:54:00,48.5,41.0,29.78,South,169,1.0,11.0,74,0.00,,,0.00,weatherlink.com 1.10,2013-02-10 21:54:00,
2013-02-10 17:09:00,48.7,41.0,29.78,ENE,59,4.0,13.0,74,0.00,,,0.00,weatherlink.com 1.10,2013-02-10 22:09:00,
2013-02-10 17:24:00,48.9,41.0,29.77,East,96,4.0,12.0,75,0.00,,,0.00,weatherlink.com 1.10,2013-02-10 22:24:00,
2013-02-10 17:39:00,48.9,41.0,29.75,East,83,5.0,14.0,75,0.00,,,0.00,weatherlink.com 1.10,2013-02-10 22:39:00,
2013-02-10 17:55:00,48.5,42.0,29.74,NNW,348,3.0,13.0,77,0.00,,,0.00,weatherlink.com 1.10,2013-02-10 22:55:00,
2013-02-10 18:10:00,48.1,42.0,29.75,NE,34,4.0,10.0,79,0.00,,,0.00,weatherlink.com 1.10,2013-02-10 23:10:00,
2013-02-10 18:25:00,48.3,42.0,29.74,ESE,107,5.0,17.0,80,0.00,,,0.00,weatherlink.com 1.10,2013-02-10 23:25:00,
2013-02-10 18:40:00,48.4,43.0,29.74,ESE,103,6.0,12.0,81,0.00,,,0.00,weatherlink.com 1.10,2013-02-10 23:40:00,
2013-02-10 18:55:00,48.7,43.0,29.73,ENE,59,7.0,15.0,82,0.00,,,0.00,weatherlink.com 1.10,2013-02-10 23:55:00,
2013-02-10 19:10:00,49.4,44.0,29.74,ENE,77,6.0,18.0,83,0.00,,,0.00,weatherlink.com 1.10,2013-02-11 00:10:00,
2013-02-10 19:25:00,49.5,45.0,29.74,ESE,118,5.0,13.0,84,0.00,,,0.00,weatherlink.com 1.10,2013-02-11 00:25:00,
2013-02-10 19:40:00,49.5,45.0,29.75,SE,132,9.0,16.0,85,0.00,,,0.00,weatherlink.com 1.10,2013-02-11 00:40:00,
2013-02-10 19:55:00,49.5,46.0,29.74,SW,231,5.0,15.0,86,0.00,,,0.00,weatherlink.com 1.10,2013-02-11 00:55:00,
2013-02-10 20:10:00,49.5,46.0,29.74,SSE,156,3.0,12.0,87,0.00,,,0.00,weatherlink.com 1.10,2013-02-11 01:10:00,
2013-02-10 20:25:00,49.5,46.0,29.73,SSW,209,9.0,15.0,87,0.00,,,0.00,weatherlink.com 1.10,2013-02-11 01:25:00,
2013-02-10 20:40:00,49.6,46.0,29.74,West,273,2.0,12.0,88,0.00,,,0.00,weatherlink.com 1.10,2013-02-11 01:40:00,
2013-02-10 20:55:00,49.8,47.0,29.73,SSE,153,3.0,12.0,89,0.00,,,0.00,weatherlink.com 1.10,2013-02-11 01:55:00,
2013-02-10 21:10:00,49.9,47.0,29.74,ESE,113,4.0,13.0,89,0.00,,,0.00,weatherlink.com 1.10,2013-02-11 02:10:00,
2013-02-10 21:25:00,49.8,47.0,29.73,South,174,8.0,13.0,90,0.00,,,0.00,weatherlink.com 1.10,2013-02-11 02:25:00,
2013-02-10 21:40:00,49.4,47.0,29.73,SSE,167,3.0,11.0,92,0.00,,,0.00,weatherlink.com 1.10,2013-02-11 02:40:00,
2013-02-10 21:55:00,49.0,47.0,29.73,ESE,111,6.0,12.0,94,0.00,,,0.00,weatherlink.com 1.10,2013-02-11 02:55:00,
2013-02-10 22:10:00,48.8,47.0,29.73,SE,145,8.0,9.0,94,0.00,,,0.00,weatherlink.com 1.10,2013-02-11 03:10:00,
2013-02-10 22:25:00,48.7,47.0,29.73,ENE,63,6.0,9.0,95,0.01,,,0.01,weatherlink.com 1.10,2013-02-11 03:25:00,
2013-02-10 22:40:00,48.8,48.0,29.73,ESE,118,7.0,8.0,95,0.01,,,0.01,weatherlink.com 1.10,2013-02-11 03:40:00,
2013-02-10 22:55:00,48.9,48.0,29.71,East,90,5.0,8.0,95,0.01,,,0.01,weatherlink.com 1.10,2013-02-11 03:55:00,
2013-02-10 23:10:00,49.1,48.0,29.71,East,100,1.0,9.0,94,0.01,,,0.01,weatherlink.com 1.10,2013-02-11 04:10:00,
2013-02-10 23:25:00,49.2,48.0,29.70,East,91,1.0,13.0,94,0.00,,,0.01,weatherlink.com 1.10,2013-02-11 04:25:00,
2013-02-10 23:40:00,49.2,48.0,29.70,SE,140,2.0,14.0,94,0.00,,,0.01,weatherlink.com 1.10,2013-02-11 04:40:00,
2013-02-10 23:55:00,49.3,48.0,29.70,SW,233,4.0,8.0,94,0.00,,,0.01,weatherlink.com 1.10,2013-02-11 04:55:00,